createdAt,value
2018-10-21T00:01:59.756Z,21.60
2018-10-21T00:04:27.454Z,24.20
2018-10-21T00:06:55.113Z,22.00
2018-10-21T00:09:22.702Z,24.67
2018-10-21T00:11:50.462Z,30.57
2018-10-21T00:14:18.167Z,23.60
2018-10-21T00:16:45.896Z,28.63
2018-10-21T00:19:13.611Z,30.07
2018-10-21T00:21:41.278Z,23.77
2018-10-21T00:24:09.018Z,23.53
2018-10-21T00:26:36.732Z,23.77
2018-10-21T00:29:04.940Z,23.17
2018-10-21T00:31:32.703Z,24.00
2018-10-21T00:34:00.385Z,25.23
2018-10-21T00:36:28.026Z,26.50
2018-10-21T00:38:57.565Z,30.83
2018-10-21T00:41:25.297Z,38.17
2018-10-21T00:43:53.029Z,31.63
2018-10-21T00:46:20.731Z,30.10
2018-10-21T00:48:48.438Z,29.00
2018-10-21T00:51:16.218Z,29.93
2018-10-21T00:53:43.808Z,31.80
2018-10-21T00:56:11.508Z,25.83
2018-10-21T00:58:39.171Z,24.73
2018-10-21T01:01:06.862Z,25.40
2018-10-21T01:03:34.453Z,26.77
2018-10-21T01:06:02.138Z,30.70
2018-10-21T01:08:29.860Z,32.13
2018-10-21T01:10:57.583Z,27.70
2018-10-21T01:13:25.275Z,25.60
2018-10-21T01:15:52.856Z,29.83
2018-10-21T01:18:20.559Z,27.00
2018-10-21T01:20:48.269Z,27.87
2018-10-21T01:23:15.872Z,27.47
2018-10-21T01:25:43.524Z,28.63
2018-10-21T01:28:11.294Z,23.63
2018-10-21T01:30:38.974Z,23.60
2018-10-21T01:33:06.729Z,24.47
2018-10-21T01:35:34.391Z,24.93
2018-10-21T01:38:02.096Z,27.03
2018-10-21T01:40:47.958Z,31.73
2018-10-21T01:43:16.598Z,25.40
2018-10-21T01:45:44.295Z,24.33
2018-10-21T01:48:13.163Z,29.03
2018-10-21T01:50:40.851Z,26.67
2018-10-21T01:53:09.614Z,29.00
2018-10-21T01:55:37.298Z,30.03
2018-10-21T01:58:06.059Z,31.10
2018-10-21T02:00:34.104Z,26.30
2018-10-21T02:03:02.156Z,26.60
2018-10-21T02:05:31.418Z,32.40
2018-10-21T02:07:59.071Z,32.43
2018-10-21T02:10:26.800Z,26.37
2018-10-21T02:12:54.736Z,30.27
2018-10-21T02:15:22.448Z,26.30
2018-10-21T02:17:50.185Z,27.50
2018-10-21T02:20:18.563Z,31.83
2018-10-21T02:22:46.966Z,28.87
2018-10-21T02:25:14.729Z,31.27
2018-10-21T02:27:43.123Z,33.00
2018-10-21T02:30:14.000Z,32.67
2018-10-21T02:32:42.105Z,32.93
2018-10-21T02:35:10.617Z,30.83
2018-10-21T02:37:38.790Z,31.43
2018-10-21T02:40:10.881Z,33.70
2018-10-21T02:42:38.612Z,30.50
2018-10-21T02:45:06.457Z,28.70
2018-10-21T02:47:35.568Z,35.37
2018-10-21T02:50:03.364Z,30.67
2018-10-21T02:52:31.046Z,31.50
2018-10-21T02:54:58.780Z,28.60
2018-10-21T02:57:26.488Z,30.03
2018-10-21T02:59:54.205Z,31.57
2018-10-21T03:02:21.859Z,31.57
2018-10-21T03:04:49.548Z,31.87
2018-10-21T03:07:17.233Z,31.70
2018-10-21T03:09:44.987Z,31.43
2018-10-21T03:12:12.639Z,33.67
2018-10-21T03:14:40.396Z,32.37
2018-10-21T03:17:08.155Z,38.43
2018-10-21T03:19:35.837Z,37.03
2018-10-21T03:22:03.552Z,28.70
2018-10-21T03:24:31.286Z,34.83
2018-10-21T03:26:59.027Z,33.63
2018-10-21T03:29:26.679Z,37.50
2018-10-21T03:31:54.411Z,34.67
2018-10-21T03:34:22.150Z,33.60
2018-10-21T03:36:49.790Z,34.87
2018-10-21T03:39:17.476Z,28.97
2018-10-21T03:41:45.237Z,32.10
2018-10-21T03:44:12.777Z,34.13
2018-10-21T03:46:40.530Z,32.33
2018-10-21T03:49:08.306Z,31.93
2018-10-21T03:51:35.981Z,32.00
2018-10-21T03:54:03.735Z,35.30
2018-10-21T03:56:31.441Z,36.50
2018-10-21T03:58:59.129Z,31.57
2018-10-21T04:01:26.872Z,30.90
2018-10-21T04:03:54.608Z,33.00
2018-10-21T04:06:22.336Z,29.87
2018-10-21T04:08:50.013Z,33.83
2018-10-21T04:11:17.778Z,26.87
2018-10-21T04:13:45.351Z,27.20
2018-10-21T04:16:13.096Z,25.83
2018-10-21T04:18:40.794Z,29.67
2018-10-21T04:21:08.501Z,30.00
2018-10-21T04:23:36.073Z,31.37
2018-10-21T04:26:03.814Z,28.73
2018-10-21T04:28:31.474Z,30.87
2018-10-21T04:30:59.157Z,27.60
2018-10-21T04:33:43.258Z,28.83
2018-10-21T04:36:12.892Z,31.23
2018-10-21T04:38:51.809Z,27.40
2018-10-21T04:41:19.569Z,33.23
2018-10-21T04:43:47.516Z,28.50
2018-10-21T04:46:15.311Z,37.87
2018-10-21T04:48:42.943Z,29.90
2018-10-21T04:51:10.664Z,35.20
2018-10-21T04:53:38.349Z,32.50
2018-10-21T04:56:06.021Z,35.90
2018-10-21T04:58:33.605Z,35.63
2018-10-21T05:01:01.300Z,31.03
2018-10-21T05:03:28.959Z,28.40
2018-10-21T05:05:56.690Z,37.57
2018-10-21T05:08:24.373Z,35.97
2018-10-21T05:10:51.959Z,33.30
2018-10-21T05:13:19.593Z,34.20
2018-10-21T05:15:47.291Z,33.70
2018-10-21T05:18:15.009Z,34.93
2018-10-21T05:20:42.684Z,37.03
2018-10-21T05:23:10.404Z,39.87
2018-10-21T05:25:38.161Z,40.00
2018-10-21T05:28:05.977Z,38.03
2018-10-21T05:30:33.700Z,34.60
2018-10-21T05:33:01.421Z,33.17
2018-10-21T05:35:29.008Z,37.83
2018-10-21T05:37:56.785Z,41.07
2018-10-21T05:40:24.449Z,34.27
2018-10-21T05:42:52.168Z,36.13
2018-10-21T05:45:19.864Z,34.43
2018-10-21T05:47:47.601Z,33.43
2018-10-21T05:50:15.938Z,38.13
2018-10-21T05:52:44.048Z,36.27
2018-10-21T05:55:12.621Z,35.33
2018-10-21T05:57:42.169Z,36.23
2018-10-21T06:00:12.489Z,32.43
2018-10-21T06:02:40.372Z,33.77
2018-10-21T06:05:19.393Z,33.20
2018-10-21T06:07:47.245Z,31.30
2018-10-21T06:10:15.098Z,35.43
2018-10-21T06:12:42.721Z,34.77
2018-10-21T06:15:10.417Z,34.13
2018-10-21T06:17:38.129Z,41.27
2018-10-21T06:20:11.116Z,29.30
2018-10-21T06:22:39.712Z,33.50
2018-10-21T06:25:08.370Z,36.57
2018-10-21T06:27:36.384Z,37.47
2018-10-21T06:30:04.719Z,38.03
2018-10-21T06:32:32.401Z,36.60
2018-10-21T06:35:00.128Z,36.73
2018-10-21T06:37:27.873Z,36.80
2018-10-21T06:39:57.402Z,38.63
2018-10-21T06:42:25.134Z,37.70
2018-10-21T06:44:52.881Z,35.80
2018-10-21T06:47:20.609Z,36.10
2018-10-21T06:49:48.448Z,37.50
2018-10-21T06:52:16.313Z,33.87
2018-10-21T06:54:44.037Z,33.57
2018-10-21T06:57:12.044Z,29.67
2018-10-21T06:59:39.773Z,34.03
2018-10-21T07:02:07.731Z,31.67
2018-10-21T07:04:35.555Z,32.30
2018-10-21T07:07:03.260Z,31.53
2018-10-21T07:09:31.314Z,31.07
2018-10-21T07:11:59.062Z,29.60
2018-10-21T07:14:26.831Z,29.30
2018-10-21T07:16:54.577Z,27.77
2018-10-21T07:19:22.362Z,33.40
2018-10-21T07:21:50.257Z,32.27
2018-10-21T07:24:18.384Z,32.17
2018-10-21T07:26:46.260Z,32.60
2018-10-21T07:29:14.480Z,30.73
2018-10-21T07:31:43.299Z,30.47
2018-10-21T07:34:11.153Z,27.83
2018-10-21T07:36:38.922Z,34.53
2018-10-21T07:39:08.860Z,33.10
2018-10-21T07:41:36.796Z,31.33
2018-10-21T07:44:04.981Z,29.23
2018-10-21T07:46:32.963Z,28.07
2018-10-21T07:49:00.756Z,30.73
2018-10-21T07:51:28.631Z,28.53
2018-10-21T07:53:56.586Z,28.20
2018-10-21T07:56:24.574Z,29.50
2018-10-21T07:58:52.661Z,26.20
2018-10-21T08:01:20.546Z,28.43
2018-10-21T08:03:48.498Z,26.83
2018-10-21T08:06:33.704Z,26.93
2018-10-21T08:09:01.484Z,27.47
2018-10-21T08:11:29.341Z,24.73
2018-10-21T08:13:57.136Z,28.50
2018-10-21T08:16:24.732Z,23.93
2018-10-21T08:18:53.115Z,25.33
2018-10-21T08:21:21.019Z,25.37
2018-10-21T08:23:48.689Z,24.27
2018-10-21T08:26:16.368Z,26.33
2018-10-21T08:28:44.108Z,26.47
2018-10-21T08:31:11.697Z,25.60
2018-10-21T08:33:39.482Z,25.30
2018-10-21T08:36:07.533Z,21.43
2018-10-21T08:38:35.696Z,21.47
2018-10-21T08:41:03.437Z,19.00
2018-10-21T08:43:31.195Z,22.40
2018-10-21T08:45:58.951Z,22.07
2018-10-21T08:48:26.601Z,22.50
2018-10-21T08:50:54.315Z,22.53
2018-10-21T08:53:22.009Z,24.23
2018-10-21T08:55:49.755Z,21.53
2018-10-21T08:58:17.405Z,23.07
2018-10-21T09:00:45.104Z,20.53
2018-10-21T09:03:12.857Z,19.57
2018-10-21T09:05:40.576Z,17.40
2018-10-21T09:08:09.239Z,18.90
2018-10-21T09:10:37.047Z,18.63
2018-10-21T09:13:04.820Z,19.77
2018-10-21T09:15:32.979Z,19.20
2018-10-21T09:18:00.752Z,19.93
2018-10-21T09:20:28.581Z,20.90
2018-10-21T09:22:56.339Z,19.23
2018-10-21T09:25:24.317Z,18.20
2018-10-21T09:27:52.194Z,19.40
2018-10-21T09:30:20.274Z,19.57
2018-10-21T09:32:47.987Z,16.03
2018-10-21T09:35:17.515Z,18.23
2018-10-21T09:37:45.380Z,18.30
2018-10-21T09:40:15.057Z,17.70
2018-10-21T09:42:43.550Z,14.90
2018-10-21T09:45:13.953Z,18.40
2018-10-21T09:47:42.116Z,17.57
2018-10-21T09:50:10.098Z,19.57
2018-10-21T09:52:39.545Z,17.67
2018-10-21T09:55:13.549Z,17.10
2018-10-21T09:57:41.243Z,14.18
2018-10-21T10:00:09.018Z,14.87
2018-10-21T10:02:42.332Z,14.90
2018-10-21T10:05:10.169Z,13.08
2018-10-21T10:07:37.970Z,12.85
2018-10-21T10:10:07.724Z,16.70
2018-10-21T10:12:35.491Z,14.85
2018-10-21T10:15:03.376Z,14.85
2018-10-21T10:17:31.063Z,13.22
2018-10-21T10:19:58.832Z,13.10
2018-10-21T10:22:26.574Z,11.33
2018-10-21T10:24:54.313Z,13.25
2018-10-21T10:27:21.967Z,12.50
2018-10-21T10:29:49.758Z,13.05
2018-10-21T10:32:17.525Z,12.88
2018-10-21T10:34:46.929Z,12.20
2018-10-21T10:37:14.795Z,11.90
2018-10-21T10:39:42.565Z,10.65
2018-10-21T10:42:10.303Z,13.78
2018-10-21T10:44:38.062Z,11.25
2018-10-21T10:47:05.810Z,8.93
2018-10-21T10:49:33.749Z,11.50
2018-10-21T10:52:01.704Z,10.55
2018-10-21T10:54:29.517Z,10.95
2018-10-21T10:56:57.220Z,10.38
2018-10-21T10:59:25.052Z,10.13
2018-10-21T11:01:52.839Z,8.43
2018-10-21T11:04:20.559Z,12.03
2018-10-21T11:06:48.332Z,10.75
2018-10-21T11:09:16.110Z,9.30
2018-10-21T11:11:44.014Z,9.48
2018-10-21T11:14:11.701Z,9.85
2018-10-21T11:16:40.839Z,9.05
2018-10-21T11:19:08.582Z,7.83
2018-10-21T11:21:36.340Z,7.53
2018-10-21T11:24:04.155Z,8.70
2018-10-21T11:26:31.902Z,6.92
2018-10-21T11:28:59.725Z,11.00
2018-10-21T11:31:27.441Z,9.08
2018-10-21T11:33:55.270Z,10.75
2018-10-21T11:36:23.819Z,8.85
2018-10-21T11:38:51.782Z,10.45
2018-10-21T11:41:19.551Z,11.88
2018-10-21T11:43:47.277Z,10.58
2018-10-21T11:46:15.188Z,11.35
2018-10-21T11:48:42.910Z,9.70
2018-10-21T11:51:10.951Z,9.25
2018-10-21T11:53:38.666Z,8.13
2018-10-21T11:56:06.493Z,7.87
2018-10-21T11:58:34.269Z,7.78
2018-10-21T12:01:02.090Z,8.45
2018-10-21T12:03:29.806Z,8.37
2018-10-21T12:05:58.436Z,10.57
2018-10-21T12:08:26.216Z,7.90
2018-10-21T12:10:54.026Z,7.17
2018-10-21T12:13:21.858Z,6.33
2018-10-21T12:15:49.555Z,6.13
2018-10-21T12:18:17.319Z,5.83
2018-10-21T12:20:45.003Z,7.00
2018-10-21T12:23:12.781Z,7.57
2018-10-21T12:25:40.493Z,7.53
2018-10-21T12:28:08.231Z,6.87
2018-10-21T12:30:35.936Z,5.80
2018-10-21T12:33:03.748Z,6.17
2018-10-21T12:35:31.401Z,4.43
2018-10-21T12:37:59.133Z,4.30
2018-10-21T12:40:26.909Z,5.53
2018-10-21T12:42:54.662Z,5.23
2018-10-21T12:45:22.500Z,4.83
2018-10-21T12:50:36.713Z,4.83
2018-10-21T12:53:04.835Z,5.60
2018-10-21T12:55:32.606Z,5.80
2018-10-21T12:58:00.376Z,5.60
2018-10-21T13:00:28.075Z,4.90
2018-10-21T13:02:55.648Z,6.20
2018-10-21T13:05:23.436Z,5.17
2018-10-21T13:07:51.791Z,4.23
2018-10-21T13:10:19.552Z,3.47
2018-10-21T13:12:47.333Z,5.47
2018-10-21T13:15:15.033Z,5.77
2018-10-21T13:17:42.816Z,5.37
2018-10-21T13:20:10.825Z,5.33
2018-10-21T13:22:38.533Z,4.30
2018-10-21T13:25:06.319Z,5.00
2018-10-21T13:27:34.034Z,5.00
2018-10-21T13:30:01.701Z,5.33
2018-10-21T13:32:29.514Z,4.30
2018-10-21T13:34:57.333Z,5.50
2018-10-21T13:37:25.121Z,3.57
2018-10-21T13:39:53.008Z,3.73
2018-10-21T13:42:20.715Z,3.00
2018-10-21T13:44:50.224Z,4.27
2018-10-21T13:47:17.906Z,4.72
2018-10-21T13:49:45.931Z,4.45
2018-10-21T13:52:13.837Z,4.15
2018-10-21T13:54:41.413Z,4.35
2018-10-21T13:57:09.233Z,3.62
2018-10-21T13:59:36.926Z,4.72
2018-10-21T14:02:04.672Z,6.22
2018-10-21T14:04:32.409Z,4.42
2018-10-21T14:07:00.171Z,3.87
2018-10-21T14:09:27.871Z,5.90
2018-10-21T14:11:55.541Z,3.65
2018-10-21T14:14:23.529Z,3.30
2018-10-21T14:16:51.441Z,5.05
2018-10-21T14:19:19.292Z,7.37
2018-10-21T14:21:47.098Z,5.47
2018-10-21T14:24:15.057Z,6.47
2018-10-21T14:26:42.783Z,4.25
2018-10-21T14:29:10.599Z,3.50
2018-10-21T14:31:38.336Z,8.15
2018-10-21T14:34:06.164Z,5.08
2018-10-21T14:36:34.076Z,3.77
2018-10-21T14:39:01.878Z,6.45
2018-10-21T14:41:29.645Z,7.93
2018-10-21T14:43:57.406Z,5.60
2018-10-21T14:46:25.206Z,4.05
2018-10-21T14:48:52.975Z,7.80
2018-10-21T14:51:22.205Z,3.70
2018-10-21T14:53:49.983Z,7.08
2018-10-21T14:56:17.742Z,5.60
2018-10-21T14:58:45.500Z,5.12
2018-10-21T15:01:13.205Z,3.62
2018-10-21T15:03:40.984Z,4.03
2018-10-21T15:06:08.747Z,5.03
2018-10-21T15:08:36.552Z,4.80
2018-10-21T15:11:04.412Z,3.52
2018-10-21T15:13:32.144Z,4.05
2018-10-21T15:15:59.856Z,4.83
2018-10-21T15:18:27.596Z,4.10
2018-10-21T15:20:55.382Z,5.80
2018-10-21T15:23:23.233Z,3.87
2018-10-21T15:25:50.918Z,6.60
2018-10-21T15:28:18.665Z,12.67
2018-10-21T15:30:48.193Z,8.80
2018-10-21T15:33:16.273Z,7.30
2018-10-21T15:35:45.029Z,6.53
2018-10-21T15:38:12.924Z,9.57
2018-10-21T15:40:40.573Z,13.07
2018-10-21T15:43:08.389Z,16.63
2018-10-21T15:45:36.349Z,12.93
2018-10-21T15:48:04.187Z,10.23
2018-10-21T15:50:32.018Z,5.17
2018-10-21T15:52:59.699Z,8.57
2018-10-21T15:55:27.478Z,9.20
2018-10-21T15:57:55.200Z,5.17
2018-10-21T16:00:22.906Z,5.70
2018-10-21T16:02:50.590Z,6.97
2018-10-21T16:05:18.408Z,7.10
2018-10-21T16:07:46.227Z,6.53
2018-10-21T16:10:14.092Z,4.97
2018-10-21T16:12:41.890Z,4.90
2018-10-21T16:15:15.501Z,4.97
2018-10-21T16:17:43.949Z,5.13
2018-10-21T16:20:11.750Z,5.87
2018-10-21T16:22:40.515Z,2.70
2018-10-21T16:25:10.438Z,4.43
2018-10-21T16:27:38.238Z,3.20
2018-10-21T16:30:08.049Z,4.33
2018-10-21T16:32:35.772Z,5.03
2018-10-21T16:35:03.679Z,4.27
2018-10-21T16:37:31.384Z,4.10
2018-10-21T16:39:59.157Z,3.60
2018-10-21T16:42:26.906Z,3.73
2018-10-21T16:44:54.612Z,6.03
2018-10-21T16:47:22.378Z,4.30
2018-10-21T16:49:50.148Z,4.90
2018-10-21T16:52:17.890Z,8.07
2018-10-21T16:54:45.742Z,4.27
2018-10-21T16:57:13.403Z,4.83
2018-10-21T16:59:41.211Z,4.03
2018-10-21T17:02:08.911Z,5.33
2018-10-21T17:04:36.600Z,4.20
2018-10-21T17:07:04.852Z,5.33
2018-10-21T17:09:32.663Z,6.03
2018-10-21T17:12:00.189Z,5.83
2018-10-21T17:14:27.829Z,9.33
2018-10-21T17:16:57.326Z,6.07
2018-10-21T17:19:25.055Z,6.43
2018-10-21T17:21:52.723Z,6.03
2018-10-21T17:24:20.464Z,3.90
2018-10-21T17:26:48.538Z,6.10
2018-10-21T17:29:16.202Z,8.70
2018-10-21T17:31:44.395Z,6.43
2018-10-21T17:34:12.147Z,7.83
2018-10-21T17:36:39.898Z,7.87
2018-10-21T17:39:10.578Z,11.27
2018-10-21T17:41:38.452Z,10.27
2018-10-21T17:44:06.344Z,13.23
2018-10-21T17:46:34.277Z,12.30
2018-10-21T17:49:02.067Z,15.73
2018-10-21T17:51:29.786Z,14.40
2018-10-21T17:53:57.493Z,14.80
2018-10-21T17:56:25.253Z,13.00
2018-10-21T17:58:53.022Z,13.00
2018-10-21T18:01:20.960Z,11.83
2018-10-21T18:03:48.666Z,9.43
2018-10-21T18:06:16.455Z,10.77
2018-10-21T18:08:44.147Z,8.33
2018-10-21T18:11:11.840Z,7.03
2018-10-21T18:13:39.657Z,6.60
2018-10-21T18:16:07.457Z,7.40
2018-10-21T18:18:35.161Z,7.30
2018-10-21T18:21:02.954Z,5.60
2018-10-21T18:23:30.741Z,6.77
2018-10-21T18:25:58.520Z,7.13
2018-10-21T18:28:26.337Z,5.67
2018-10-21T18:30:54.049Z,6.67
2018-10-21T18:33:21.730Z,5.60
2018-10-21T18:35:49.476Z,5.83
2018-10-21T18:38:17.173Z,6.53
2018-10-21T18:40:44.859Z,5.87
2018-10-21T18:43:12.694Z,5.03
2018-10-21T18:45:40.563Z,5.37
2018-10-21T18:48:08.320Z,5.37
2018-10-21T18:50:36.179Z,5.33
2018-10-21T18:53:04.116Z,7.93
2018-10-21T18:55:31.809Z,6.73
2018-10-21T18:57:59.586Z,7.50
2018-10-21T19:00:27.305Z,6.60
2018-10-21T19:02:56.269Z,7.53
2018-10-21T19:05:24.482Z,6.37
2018-10-21T19:07:52.239Z,9.43
2018-10-21T19:10:19.957Z,5.30
2018-10-21T19:12:59.571Z,8.00
2018-10-21T19:15:15.597Z,6.77
2018-10-21T19:17:43.416Z,8.23
2018-10-21T19:20:12.980Z,7.77
2018-10-21T19:22:41.070Z,6.13
2018-10-21T19:25:10.081Z,6.40
2018-10-21T19:27:37.799Z,6.20
2018-10-21T19:30:06.636Z,8.60
2018-10-21T19:32:34.345Z,9.67
2018-10-21T19:35:02.107Z,8.87
2018-10-21T19:37:29.876Z,5.27
2018-10-21T19:39:57.619Z,6.77
2018-10-21T19:42:25.440Z,5.27
2018-10-21T19:44:53.153Z,6.57
2018-10-21T19:47:20.903Z,8.23
2018-10-21T19:49:48.633Z,4.70
2018-10-21T19:52:16.459Z,7.73
2018-10-21T19:54:44.085Z,5.10
2018-10-21T19:57:11.995Z,5.80
2018-10-21T19:59:39.737Z,4.90
2018-10-21T20:02:07.552Z,4.80
2018-10-21T20:04:35.213Z,5.10
2018-10-21T20:07:03.025Z,8.03
2018-10-21T20:09:30.794Z,6.63
2018-10-21T20:11:58.555Z,6.53
2018-10-21T20:14:26.270Z,6.03
2018-10-21T20:16:54.111Z,6.43
2018-10-21T20:19:21.859Z,6.70
2018-10-21T20:21:49.645Z,5.40
2018-10-21T20:24:17.353Z,7.00
2018-10-21T20:26:45.062Z,6.17
2018-10-21T20:29:12.890Z,8.87
2018-10-21T20:31:40.637Z,4.20
2018-10-21T20:34:08.475Z,6.43
2018-10-21T20:36:36.241Z,6.23
2018-10-21T20:39:06.510Z,5.17
2018-10-21T20:41:34.413Z,7.83
2018-10-21T20:44:02.359Z,8.77
2018-10-21T20:46:30.114Z,8.33
2018-10-21T20:48:58.495Z,6.93
2018-10-21T20:51:26.286Z,6.73
2018-10-21T20:53:54.152Z,6.33
2018-10-21T20:56:21.970Z,5.60
2018-10-21T20:58:50.568Z,5.93
2018-10-21T21:01:18.201Z,5.53
2018-10-21T21:03:45.973Z,8.23
2018-10-21T21:06:13.833Z,6.07
2018-10-21T21:08:41.525Z,6.73
2018-10-21T21:11:09.933Z,6.20
2018-10-21T21:13:37.732Z,7.20
2018-10-21T21:16:05.794Z,6.23
2018-10-21T21:18:33.498Z,4.93
2018-10-21T21:21:01.275Z,8.33
2018-10-21T21:23:29.007Z,5.80
2018-10-21T21:25:56.622Z,6.03
2018-10-21T21:28:24.360Z,6.10
2018-10-21T21:30:53.519Z,6.47
2018-10-21T21:33:21.226Z,6.20
2018-10-21T21:35:48.912Z,5.10
2018-10-21T21:38:16.521Z,6.80
2018-10-21T21:40:44.288Z,6.10
2018-10-21T21:43:12.059Z,5.50
2018-10-21T21:45:39.729Z,8.63
2018-10-21T21:48:07.517Z,8.23
2018-10-21T21:50:35.106Z,5.53
2018-10-21T21:53:02.888Z,8.17
2018-10-21T21:55:30.651Z,7.53
2018-10-21T21:57:58.527Z,5.10
2018-10-21T22:00:26.261Z,7.93
2018-10-21T22:02:54.002Z,7.53
2018-10-21T22:05:21.772Z,5.10
2018-10-21T22:07:49.544Z,5.03
2018-10-21T22:10:17.332Z,6.93
2018-10-21T22:12:45.054Z,6.13
2018-10-21T22:15:13.213Z,5.53
2018-10-21T22:17:41.565Z,7.03
2018-10-21T22:20:09.857Z,4.97
2018-10-21T22:22:37.547Z,5.60
2018-10-21T22:25:05.349Z,6.83
2018-10-21T22:27:33.103Z,8.90
2018-10-21T22:30:00.859Z,7.00
2018-10-21T22:32:28.576Z,6.63
2018-10-21T22:34:56.249Z,6.57
2018-10-21T22:37:24.022Z,6.33
2018-10-21T22:39:51.746Z,7.73
2018-10-21T22:42:19.539Z,5.73
2018-10-21T22:44:47.266Z,5.83
2018-10-21T22:47:14.972Z,4.87
2018-10-21T22:49:42.702Z,5.43
2018-10-21T22:52:10.493Z,9.43
2018-10-21T22:54:38.209Z,5.03
2018-10-21T22:57:11.362Z,5.17
2018-10-21T22:59:39.197Z,4.70
2018-10-21T23:02:06.958Z,4.80
2018-10-21T23:04:34.732Z,4.40
2018-10-21T23:07:02.478Z,4.97
2018-10-21T23:09:30.223Z,6.10
2018-10-21T23:11:57.981Z,8.20
2018-10-21T23:14:25.672Z,7.33
2018-10-21T23:16:53.375Z,6.20
2018-10-21T23:19:55.022Z,4.70
2018-10-21T23:22:22.697Z,5.83
2018-10-21T23:24:50.389Z,6.37
2018-10-21T23:27:17.970Z,5.53
2018-10-21T23:29:45.678Z,5.87
2018-10-21T23:32:13.402Z,5.87
2018-10-21T23:34:41.161Z,5.43
2018-10-21T23:37:09.001Z,5.73
2018-10-21T23:39:36.761Z,6.80
2018-10-21T23:42:04.804Z,7.00
2018-10-21T23:44:32.503Z,5.97
2018-10-21T23:47:00.235Z,5.37
2018-10-21T23:49:27.978Z,5.93
2018-10-21T23:51:55.706Z,7.37
2018-10-21T23:54:23.455Z,5.27
2018-10-21T23:56:51.181Z,9.47
2018-10-21T23:59:18.918Z,7.73
